createdAt,value
2018-05-11T00:00:29.897Z,100785.24
2018-05-11T00:02:57.416Z,100782.97
2018-05-11T00:05:24.921Z,100799.16
2018-05-11T00:07:52.403Z,100806.95
2018-05-11T00:10:19.936Z,100811.67
2018-05-11T00:12:47.504Z,100812.80
2018-05-11T00:15:15.012Z,100814.22
2018-05-11T00:17:42.498Z,100814.58
2018-05-11T00:20:10.060Z,100824.70
2018-05-11T00:22:37.521Z,100837.58
2018-05-11T00:25:05.081Z,100836.08
2018-05-11T00:27:32.587Z,100841.83
2018-05-11T00:30:00.082Z,100847.63
2018-05-11T00:32:27.609Z,100838.69
2018-05-11T00:34:55.165Z,100843.37
2018-05-11T00:37:22.630Z,100844.86
2018-05-11T00:39:50.155Z,100847.29
2018-05-11T00:42:17.612Z,100846.54
2018-05-11T00:44:45.068Z,100849.12
2018-05-11T00:47:12.629Z,100848.56
2018-05-11T00:49:40.091Z,100868.69
2018-05-11T00:52:07.576Z,100875.13
2018-05-11T00:54:35.085Z,100866.20
2018-05-11T00:57:02.557Z,100879.72
2018-05-11T00:59:30.030Z,100883.73
2018-05-11T01:01:57.484Z,100887.62
2018-05-11T01:04:24.967Z,100897.74
2018-05-11T01:06:52.421Z,100907.89
2018-05-11T01:09:19.891Z,100908.45
2018-05-11T01:11:47.405Z,100915.80
2018-05-11T01:14:14.876Z,100906.44
2018-05-11T01:16:42.393Z,100917.53
2018-05-11T01:19:09.897Z,100929.28
2018-05-11T01:21:37.405Z,100935.80
2018-05-11T01:24:04.896Z,100940.20
2018-05-11T01:26:32.476Z,100935.28
2018-05-11T01:29:00.006Z,100946.13
2018-05-11T01:31:27.470Z,100948.58
2018-05-11T01:33:54.970Z,100947.01
2018-05-11T01:36:22.436Z,100947.96
2018-05-11T01:38:49.964Z,100958.81
2018-05-11T01:41:17.448Z,100953.25
2018-05-11T01:43:44.943Z,100944.31
2018-05-11T01:46:12.414Z,100947.36
2018-05-11T01:48:39.871Z,100945.11
2018-05-11T01:51:07.387Z,100947.22
2018-05-11T01:53:34.839Z,100950.50
2018-05-11T01:56:02.365Z,100957.19
2018-05-11T01:58:29.851Z,100957.28
2018-05-11T02:00:57.364Z,100958.14
2018-05-11T02:03:24.928Z,100957.19
2018-05-11T02:05:52.448Z,100968.98
2018-05-11T02:08:19.940Z,100959.91
2018-05-11T02:10:47.464Z,100964.99
2018-05-11T02:13:14.915Z,100975.16
2018-05-11T02:15:42.429Z,100974.03
2018-05-11T02:18:09.925Z,100982.47
2018-05-11T02:20:37.422Z,100984.17
2018-05-11T02:23:04.935Z,100982.36
2018-05-11T02:25:32.434Z,100993.24
2018-05-11T02:27:59.999Z,100997.59
2018-05-11T02:30:27.525Z,100996.70
2018-05-11T02:32:55.125Z,100998.69
2018-05-11T02:35:22.609Z,100994.31
2018-05-11T02:37:50.157Z,100988.81
2018-05-11T02:40:17.616Z,100993.05
2018-05-11T02:42:45.104Z,100992.25
2018-05-11T02:45:12.672Z,100990.09
2018-05-11T02:47:40.100Z,100993.32
2018-05-11T02:50:07.658Z,100996.30
2018-05-11T02:52:35.257Z,101005.30
2018-05-11T02:55:02.724Z,101001.89
2018-05-11T02:57:30.192Z,101014.88
2018-05-11T02:59:57.683Z,101009.25
2018-05-11T03:02:25.140Z,101013.71
2018-05-11T03:04:52.680Z,101013.53
2018-05-11T03:07:20.159Z,101010.68
2018-05-11T03:09:47.636Z,101017.69
2018-05-11T03:12:15.117Z,101022.63
2018-05-11T03:14:42.575Z,101029.09
2018-05-11T03:17:10.077Z,101030.59
2018-05-11T03:19:37.546Z,101031.64
2018-05-11T03:22:05.048Z,101038.37
2018-05-11T03:24:32.643Z,101035.09
2018-05-11T03:27:00.186Z,101039.72
2018-05-11T03:29:27.734Z,101046.64
2018-05-11T03:31:55.236Z,101053.16
2018-05-11T03:34:22.707Z,101069.20
2018-05-11T03:36:50.181Z,101062.80
2018-05-11T03:39:17.696Z,101073.50
2018-05-11T03:41:45.254Z,101065.09
2018-05-11T03:44:12.743Z,101075.71
2018-05-11T03:46:40.232Z,101073.94
2018-05-11T03:49:07.765Z,101071.31
2018-05-11T03:51:35.243Z,101073.03
2018-05-11T03:54:02.712Z,101073.50
2018-05-11T03:56:30.194Z,101073.40
2018-05-11T03:58:57.673Z,101065.50
2018-05-11T04:01:37.194Z,101070.13
2018-05-11T04:04:16.598Z,101070.95
2018-05-11T04:09:53.019Z,101070.03
2018-05-11T04:12:20.532Z,101075.61
2018-05-11T04:14:48.061Z,101083.88
2018-05-11T04:17:15.522Z,101086.88
2018-05-11T04:19:43.071Z,101093.91
2018-05-11T04:22:10.543Z,101091.51
2018-05-11T04:24:38.036Z,101086.88
2018-05-11T04:27:05.574Z,101093.09
2018-05-11T04:29:33.092Z,101094.28
2018-05-11T04:32:00.586Z,101094.56
2018-05-11T04:34:28.091Z,101093.66
2018-05-11T04:36:55.630Z,101092.97
2018-05-11T04:39:23.098Z,101096.70
2018-05-11T04:41:50.673Z,101100.09
2018-05-11T04:44:18.244Z,101087.55
2018-05-11T04:46:45.774Z,101094.83
2018-05-11T04:49:13.344Z,101104.52
2018-05-11T04:51:40.916Z,101097.87
2018-05-11T04:54:08.408Z,101104.05
2018-05-11T04:56:35.923Z,101104.41
2018-05-11T04:59:03.423Z,101113.31
2018-05-11T05:01:30.943Z,101114.52
2018-05-11T05:03:58.412Z,101114.30
2018-05-11T05:06:25.934Z,101120.74
2018-05-11T05:08:53.427Z,101119.61
2018-05-11T05:11:20.926Z,101125.70
2018-05-11T05:13:48.436Z,101134.06
2018-05-11T05:16:15.984Z,101134.22
2018-05-11T05:18:43.539Z,101139.52
2018-05-11T05:21:11.157Z,101136.53
2018-05-11T05:23:38.743Z,101137.44
2018-05-11T05:26:06.209Z,101132.13
2018-05-11T05:28:33.712Z,101140.44
2018-05-11T05:31:01.320Z,101144.91
2018-05-11T05:33:28.816Z,101137.73
2018-05-11T05:35:56.298Z,101145.02
2018-05-11T05:38:23.783Z,101142.03
2018-05-11T05:40:51.253Z,101150.48
2018-05-11T05:43:18.762Z,101146.17
2018-05-11T05:45:46.266Z,101152.13
2018-05-11T05:48:13.747Z,101146.83
2018-05-11T05:50:41.249Z,101152.64
2018-05-11T05:53:08.763Z,101162.73
2018-05-11T05:55:36.301Z,101157.81
2018-05-11T05:58:03.767Z,101169.86
2018-05-11T06:00:31.241Z,101167.77
2018-05-11T06:02:58.742Z,101167.14
2018-05-11T06:05:26.227Z,101168.55
2018-05-11T06:07:53.706Z,101176.24
2018-05-11T06:10:21.210Z,101167.66
2018-05-11T06:12:48.684Z,101175.59
2018-05-11T06:15:16.143Z,101180.12
2018-05-11T06:17:43.725Z,101177.34
2018-05-11T06:20:11.219Z,101183.95
2018-05-11T06:22:38.684Z,101182.12
2018-05-11T06:25:06.163Z,101185.32
2018-05-11T06:27:33.660Z,101187.88
2018-05-11T06:30:01.194Z,101187.62
2018-05-11T06:32:29.330Z,101192.66
2018-05-11T06:34:56.831Z,101193.50
2018-05-11T06:37:24.340Z,101198.19
2018-05-11T06:39:51.855Z,101207.44
2018-05-11T06:42:19.350Z,101200.55
2018-05-11T06:44:46.832Z,101199.19
2018-05-11T06:47:14.315Z,101195.73
2018-05-11T06:49:41.789Z,101198.87
2018-05-11T06:52:09.247Z,101201.78
2018-05-11T06:54:36.707Z,101203.13
2018-05-11T06:57:04.293Z,101215.03
2018-05-11T06:59:31.764Z,101216.63
2018-05-11T07:01:59.309Z,101219.47
2018-05-11T07:04:26.773Z,101217.44
2018-05-11T07:06:54.266Z,101224.41
2018-05-11T07:09:21.754Z,101224.59
2018-05-11T07:11:49.303Z,101224.54
2018-05-11T07:14:16.908Z,101222.64
2018-05-11T07:16:44.388Z,101219.14
2018-05-11T07:19:11.884Z,101219.22
2018-05-11T07:21:39.477Z,101213.81
2018-05-11T07:24:06.952Z,101227.06
2018-05-11T07:26:34.455Z,101222.89
2018-05-11T07:29:01.908Z,101220.52
2018-05-11T07:31:29.415Z,101221.34
2018-05-11T07:33:56.903Z,101215.39
2018-05-11T07:36:24.397Z,101226.31
2018-05-11T07:38:51.900Z,101227.18
2018-05-11T07:41:19.355Z,101227.67
2018-05-11T07:43:46.857Z,101230.64
2018-05-11T07:48:48.115Z,101231.66
2018-05-11T07:51:15.575Z,101234.13
2018-05-11T07:53:43.148Z,101230.02
2018-05-11T07:56:10.785Z,101230.86
2018-05-11T07:58:38.273Z,101233.44
2018-05-11T08:01:05.804Z,101237.19
2018-05-11T08:03:33.409Z,101237.75
2018-05-11T08:06:00.906Z,101240.83
2018-05-11T08:08:28.436Z,101244.75
2018-05-11T08:10:55.937Z,101240.11
2018-05-11T08:13:23.457Z,101246.12
2018-05-11T08:15:50.937Z,101239.14
2018-05-11T08:18:18.403Z,101242.47
2018-05-11T08:20:45.881Z,101245.56
2018-05-11T08:23:13.365Z,101248.96
2018-05-11T08:25:40.863Z,101248.83
2018-05-11T08:28:08.363Z,101240.55
2018-05-11T08:30:35.823Z,101245.92
2018-05-11T08:33:03.302Z,101249.83
2018-05-11T08:35:30.835Z,101255.39
2018-05-11T08:37:58.391Z,101262.71
2018-05-11T08:40:25.900Z,101258.82
2018-05-11T08:42:53.368Z,101257.44
2018-05-11T08:45:20.880Z,101258.41
2018-05-11T08:47:48.364Z,101256.78
2018-05-11T08:50:15.875Z,101261.48
2018-05-11T08:52:43.582Z,101262.22
2018-05-11T08:55:11.133Z,101263.58
2018-05-11T08:57:38.649Z,101265.20
2018-05-11T09:00:06.141Z,101264.53
2018-05-11T09:02:33.641Z,101267.69
2018-05-11T09:05:01.122Z,101265.48
2018-05-11T09:07:28.648Z,101268.52
2018-05-11T09:09:56.117Z,101271.99
2018-05-11T09:12:23.578Z,101274.55
2018-05-11T09:14:51.085Z,101280.01
2018-05-11T09:17:18.663Z,101269.33
2018-05-11T09:19:46.230Z,101278.41
2018-05-11T09:22:13.725Z,101284.18
2018-05-11T09:24:41.226Z,101280.11
2018-05-11T09:27:08.737Z,101286.53
2018-05-11T09:29:36.271Z,101279.50
2018-05-11T09:32:03.800Z,101281.11
2018-05-11T09:34:31.385Z,101283.73
2018-05-11T09:36:58.950Z,101285.77
2018-05-11T09:39:26.511Z,101278.95
2018-05-11T09:41:54.023Z,101287.21
2018-05-11T09:44:21.494Z,101289.19
2018-05-11T09:46:48.947Z,101294.09
2018-05-11T09:49:16.444Z,101292.06
2018-05-11T09:51:43.938Z,101293.21
2018-05-11T09:54:11.441Z,101294.83
2018-05-11T09:56:38.933Z,101295.39
2018-05-11T09:59:06.430Z,101293.39
2018-05-11T10:01:33.979Z,101301.30
2018-05-11T10:04:01.480Z,101302.11
2018-05-11T10:06:28.991Z,101297.84
2018-05-11T10:08:56.539Z,101301.73
2018-05-11T10:11:24.016Z,101303.63
2018-05-11T10:13:51.649Z,101298.50
2018-05-11T10:16:19.171Z,101301.30
2018-05-11T10:18:46.661Z,101303.32
2018-05-11T10:21:14.147Z,101305.29
2018-05-11T10:23:41.645Z,101304.33
2018-05-11T10:26:09.221Z,101306.27
2018-05-11T10:28:36.721Z,101307.20
2018-05-11T10:31:04.208Z,101305.04
2018-05-11T10:33:31.695Z,101302.52
2018-05-11T10:35:59.171Z,101312.82
2018-05-11T10:38:26.708Z,101313.34
2018-05-11T10:40:54.211Z,101316.43
2018-05-11T10:43:21.685Z,101317.10
2018-05-11T10:45:49.196Z,101320.73
2018-05-11T10:48:16.672Z,101326.45
2018-05-11T10:50:44.239Z,101325.39
2018-05-11T10:53:11.703Z,101331.83
2018-05-11T10:55:39.214Z,101328.02
2018-05-11T10:58:06.726Z,101326.16
2018-05-11T11:00:34.212Z,101328.00
2018-05-11T11:03:01.713Z,101333.88
2018-05-11T11:05:29.247Z,101327.00
2018-05-11T11:07:56.747Z,101330.16
2018-05-11T11:10:24.229Z,101326.66
2018-05-11T11:12:51.728Z,101333.01
2018-05-11T11:15:19.306Z,101336.15
2018-05-11T11:17:46.815Z,101324.69
2018-05-11T11:20:14.553Z,101323.05
2018-05-11T11:22:42.108Z,101323.97
2018-05-11T11:25:09.600Z,101324.79
2018-05-11T11:27:37.179Z,101314.64
2018-05-11T11:30:04.681Z,101317.27
2018-05-11T11:32:32.192Z,101314.53
2018-05-11T11:34:59.701Z,101314.53
2018-05-11T11:37:27.354Z,101316.08
2018-05-11T11:39:54.810Z,101312.52
2018-05-11T11:42:22.302Z,101311.37
2018-05-11T11:44:49.871Z,101310.98
2018-05-11T11:47:17.402Z,101315.22
2018-05-11T11:49:45.008Z,101313.34
2018-05-11T11:52:12.525Z,101320.98
2018-05-11T11:54:40.171Z,101318.69
2018-05-11T11:57:07.666Z,101316.79
2018-05-11T11:59:35.227Z,101324.30
2018-05-11T12:02:02.800Z,101323.33
2018-05-11T12:04:30.346Z,101320.41
2018-05-11T12:06:57.840Z,101315.56
2018-05-11T12:09:25.308Z,101314.90
2018-05-11T12:11:52.829Z,101317.24
2018-05-11T12:14:20.292Z,101315.47
2018-05-11T12:16:47.799Z,101312.61
2018-05-11T12:19:15.296Z,101312.95
2018-05-11T12:21:42.767Z,101312.70
2018-05-11T12:24:10.275Z,101315.20
2018-05-11T12:26:37.887Z,101312.66
2018-05-11T12:29:05.383Z,101307.33
2018-05-11T12:31:32.913Z,101312.20
2018-05-11T12:34:00.380Z,101315.20
2018-05-11T12:36:27.874Z,101316.23
2018-05-11T12:38:55.408Z,101310.51
2018-05-11T12:41:22.885Z,101305.38
2018-05-11T12:43:50.386Z,101308.75
2018-05-11T12:46:17.856Z,101311.85
2018-05-11T12:48:45.388Z,101313.86
2018-05-11T12:51:12.969Z,101311.83
2018-05-11T12:53:40.461Z,101311.55
2018-05-11T12:56:07.921Z,101304.98
2018-05-11T12:58:35.408Z,101313.08
2018-05-11T13:01:02.910Z,101313.81
2018-05-11T13:03:30.409Z,101317.86
2018-05-11T13:05:57.895Z,101314.31
2018-05-11T13:08:25.404Z,101311.71
2018-05-11T13:10:52.879Z,101307.09
2018-05-11T13:13:20.374Z,101306.31
2018-05-11T13:15:47.881Z,101304.66
2018-05-11T13:18:15.402Z,101305.84
2018-05-11T13:20:42.983Z,101301.94
2018-05-11T13:23:10.404Z,101296.66
2018-05-11T13:25:37.963Z,101300.00
2018-05-11T13:28:05.524Z,101299.98
2018-05-11T13:30:33.158Z,101302.45
2018-05-11T13:33:00.549Z,101308.05
2018-05-11T13:35:28.051Z,101302.22
2018-05-11T13:37:55.576Z,101303.78
2018-05-11T13:40:23.065Z,101297.36
2018-05-11T13:42:50.555Z,101299.52
2018-05-11T13:45:18.035Z,101301.66
2018-05-11T13:47:45.541Z,101303.78
2018-05-11T13:50:13.064Z,101298.56
2018-05-11T13:52:40.545Z,101302.86
2018-05-11T13:55:08.015Z,101296.58
2018-05-11T13:57:35.545Z,101298.86
2018-05-11T14:00:03.048Z,101295.64
2018-05-11T14:02:30.583Z,101296.92
2018-05-11T14:04:58.056Z,101297.45
2018-05-11T14:07:25.591Z,101292.67
2018-05-11T14:09:53.102Z,101289.21
2018-05-11T14:12:20.582Z,101287.83
2018-05-11T14:14:48.112Z,101286.80
2018-05-11T14:17:15.681Z,101287.03
2018-05-11T14:19:43.157Z,101280.40
2018-05-11T14:22:10.648Z,101280.89
2018-05-11T14:24:38.123Z,101278.45
2018-05-11T14:27:05.587Z,101278.09
2018-05-11T14:29:33.047Z,101274.82
2018-05-11T14:32:00.594Z,101276.10
2018-05-11T14:34:28.057Z,101273.09
2018-05-11T14:36:55.543Z,101274.31
2018-05-11T14:39:23.071Z,101266.28
2018-05-11T14:41:50.564Z,101260.69
2018-05-11T14:44:18.839Z,101261.59
2018-05-11T14:46:46.333Z,101265.13
2018-05-11T14:49:13.820Z,101257.91
2018-05-11T14:51:41.272Z,101258.36
2018-05-11T14:54:08.776Z,101269.42
2018-05-11T14:56:36.393Z,101265.18
2018-05-11T14:59:03.892Z,101260.68
2018-05-11T15:01:31.364Z,101259.69
2018-05-11T15:03:58.900Z,101263.20
2018-05-11T15:06:26.483Z,101253.47
2018-05-11T15:08:54.019Z,101258.77
2018-05-11T15:11:21.705Z,101250.44
2018-05-11T15:13:49.211Z,101256.51
2018-05-11T15:16:16.723Z,101247.43
2018-05-11T15:18:44.248Z,101241.52
2018-05-11T15:21:11.819Z,101238.01
2018-05-11T15:23:39.330Z,101235.44
2018-05-11T15:26:06.849Z,101232.28
2018-05-11T15:28:34.342Z,101230.78
2018-05-11T15:31:01.854Z,101223.27
2018-05-11T15:33:29.357Z,101227.25
2018-05-11T15:35:56.863Z,101221.84
2018-05-11T15:38:24.332Z,101223.48
2018-05-11T15:40:51.833Z,101225.03
2018-05-11T15:43:19.333Z,101221.06
2018-05-11T15:45:46.794Z,101228.02
2018-05-11T15:48:14.300Z,101223.37
2018-05-11T15:50:41.792Z,101227.29
2018-05-11T15:53:09.279Z,101223.52
2018-05-11T15:55:36.807Z,101220.34
2018-05-11T15:58:04.305Z,101220.97
2018-05-11T16:00:31.823Z,101220.73
2018-05-11T16:02:59.301Z,101223.06
2018-05-11T16:05:26.826Z,101226.92
2018-05-11T16:07:54.310Z,101223.96
2018-05-11T16:10:21.794Z,101224.33
2018-05-11T16:12:49.381Z,101221.02
2018-05-11T16:15:16.782Z,101217.07
2018-05-11T16:17:44.245Z,101219.65
2018-05-11T16:20:11.708Z,101217.67
2018-05-11T16:22:39.180Z,101209.42
2018-05-11T16:25:06.652Z,101220.25
2018-05-11T16:27:34.177Z,101215.45
2018-05-11T16:30:01.724Z,101215.81
2018-05-11T16:32:29.884Z,101211.41
2018-05-11T16:34:57.377Z,101213.30
2018-05-11T16:37:24.893Z,101220.02
2018-05-11T16:39:52.349Z,101215.36
2018-05-11T16:42:19.940Z,101216.27
2018-05-11T16:44:47.535Z,101215.11
2018-05-11T16:47:15.161Z,101218.61
2018-05-11T16:49:42.721Z,101218.70
2018-05-11T16:52:10.310Z,101219.00
2018-05-11T16:54:37.796Z,101215.95
2018-05-11T16:57:05.289Z,101214.27
2018-05-11T16:59:32.756Z,101217.39
2018-05-11T17:02:00.296Z,101216.17
2018-05-11T17:04:29.250Z,101217.30
2018-05-11T17:06:56.737Z,101217.05
2018-05-11T17:09:24.233Z,101218.40
2018-05-11T17:11:51.735Z,101220.75
2018-05-11T17:14:19.268Z,101225.67
2018-05-11T17:16:46.804Z,101227.95
2018-05-11T17:19:14.268Z,101219.13
2018-05-11T17:21:41.823Z,101226.47
2018-05-11T17:24:09.381Z,101220.83
2018-05-11T17:26:36.900Z,101224.73
2018-05-11T17:29:04.372Z,101221.72
2018-05-11T17:31:31.827Z,101225.86
2018-05-11T17:33:59.290Z,101224.93
2018-05-11T17:36:26.775Z,101231.71
2018-05-11T17:38:54.271Z,101223.67
2018-05-11T17:41:21.838Z,101228.56
2018-05-11T17:43:49.294Z,101224.77
2018-05-11T17:46:16.797Z,101225.86
2018-05-11T17:48:44.375Z,101225.52
2018-05-11T17:51:11.876Z,101226.20
2018-05-11T17:53:39.392Z,101230.40
2018-05-11T17:56:06.863Z,101228.86
2018-05-11T17:58:34.364Z,101233.92
2018-05-11T18:01:01.976Z,101232.69
2018-05-11T18:03:29.474Z,101231.83
2018-05-11T18:05:56.940Z,101233.36
2018-05-11T18:08:24.412Z,101230.59
2018-05-11T18:10:51.893Z,101238.67
2018-05-11T18:13:19.457Z,101237.67
2018-05-11T18:15:47.074Z,101243.31
2018-05-11T18:18:14.664Z,101242.36
2018-05-11T18:20:42.129Z,101244.75
2018-05-11T18:23:09.699Z,101252.08
2018-05-11T18:25:37.237Z,101248.48
2018-05-11T18:28:04.733Z,101249.23
2018-05-11T18:30:32.195Z,101250.61
2018-05-11T18:32:59.680Z,101253.38
2018-05-11T18:35:27.231Z,101249.58
2018-05-11T18:37:54.841Z,101253.00
2018-05-11T18:40:22.386Z,101251.77
2018-05-11T18:42:50.071Z,101252.52
2018-05-11T18:45:17.628Z,101255.05
2018-05-11T18:47:45.122Z,101253.20
2018-05-11T18:50:12.625Z,101260.52
2018-05-11T18:52:40.185Z,101257.14
2018-05-11T18:55:07.820Z,101259.63
2018-05-11T18:57:35.322Z,101260.34
2018-05-11T19:00:02.798Z,101259.63
2018-05-11T19:02:30.334Z,101261.61
2018-05-11T19:04:57.899Z,101263.42
2018-05-11T19:07:25.445Z,101270.94
2018-05-11T19:09:52.923Z,101270.56
2018-05-11T19:12:20.421Z,101276.95
2018-05-11T19:14:47.927Z,101279.75
2018-05-11T19:17:15.488Z,101278.89
2018-05-11T19:19:42.982Z,101278.41
2018-05-11T19:22:10.464Z,101275.13
2018-05-11T19:24:38.052Z,101283.11
2018-05-11T19:27:05.564Z,101288.27
2018-05-11T19:29:33.058Z,101297.25
2018-05-11T19:32:00.668Z,101294.30
2018-05-11T19:34:28.171Z,101296.75
2018-05-11T19:36:55.657Z,101296.71
2018-05-11T19:39:23.273Z,101300.76
2018-05-11T19:41:50.744Z,101305.36
2018-05-11T19:44:18.271Z,101303.28
2018-05-11T19:46:45.774Z,101305.71
2018-05-11T19:49:13.286Z,101313.36
2018-05-11T19:51:40.813Z,101316.51
2018-05-11T19:54:08.283Z,101315.86
2018-05-11T19:56:35.736Z,101310.30
2018-05-11T19:59:03.288Z,101307.98
2018-05-11T20:01:30.779Z,101301.77
2018-05-11T20:03:58.297Z,101306.50
2018-05-11T20:06:25.809Z,101304.05
2018-05-11T20:08:53.333Z,101306.37
2018-05-11T20:11:20.874Z,101303.46
2018-05-11T20:13:48.368Z,101301.87
2018-05-11T20:16:15.844Z,101299.13
2018-05-11T20:18:43.342Z,101300.19
2018-05-11T20:21:10.840Z,101304.28
2018-05-11T20:23:38.349Z,101295.73
2018-05-11T20:26:05.825Z,101304.27
2018-05-11T20:28:33.289Z,101304.31
2018-05-11T20:31:00.785Z,101302.05
2018-05-11T20:33:28.260Z,101297.26
2018-05-11T20:35:55.797Z,101302.07
2018-05-11T20:38:23.398Z,101297.16
2018-05-11T20:40:50.916Z,101293.03
2018-05-11T20:43:18.430Z,101290.25
2018-05-11T20:45:45.960Z,101292.92
2018-05-11T20:48:13.425Z,101297.02
2018-05-11T20:50:40.910Z,101301.12
2018-05-11T20:53:08.369Z,101300.27
2018-05-11T20:55:35.910Z,101302.34
2018-05-11T20:58:03.389Z,101304.30
2018-05-11T21:00:30.918Z,101306.73
2018-05-11T21:02:58.400Z,101309.05
2018-05-11T21:05:25.901Z,101310.23
2018-05-11T21:07:53.512Z,101310.42
2018-05-11T21:10:21.057Z,101309.81
2018-05-11T21:12:48.560Z,101308.99
2018-05-11T21:15:16.090Z,101307.98
2018-05-11T21:17:43.587Z,101311.03
2018-05-11T21:20:11.161Z,101311.36
2018-05-11T21:22:38.743Z,101307.27
2018-05-11T21:25:06.335Z,101308.94
2018-05-11T21:27:34.031Z,101302.38
2018-05-11T21:30:01.873Z,101300.66
2018-05-11T21:32:29.613Z,101298.19
2018-05-11T21:34:57.214Z,101291.05
2018-05-11T21:37:24.832Z,101299.73
2018-05-11T21:39:52.471Z,101298.03
2018-05-11T21:42:19.978Z,101297.72
2018-05-11T21:44:47.723Z,101292.26
2018-05-11T21:47:15.280Z,101296.71
2018-05-11T21:49:42.773Z,101292.70
2018-05-11T21:52:10.706Z,101299.11
2018-05-11T21:54:38.442Z,101289.43
2018-05-11T21:57:05.959Z,101290.20
2018-05-11T21:59:33.609Z,101287.59
2018-05-11T22:02:01.476Z,101283.09
2018-05-11T22:04:29.255Z,101286.02
2018-05-11T22:06:56.833Z,101288.80
2018-05-11T22:09:24.340Z,101285.11
2018-05-11T22:11:52.101Z,101280.98
2018-05-11T22:14:19.704Z,101281.13
2018-05-11T22:16:47.509Z,101275.12
2018-05-11T22:19:15.011Z,101274.39
2018-05-11T22:21:42.837Z,101275.53
2018-05-11T22:24:10.415Z,101263.67
2018-05-11T22:26:37.920Z,101264.72
2018-05-11T22:29:05.379Z,101258.75
2018-05-11T22:31:32.878Z,101257.69
2018-05-11T22:34:00.483Z,101260.48
2018-05-11T22:36:27.936Z,101253.84
2018-05-11T22:38:55.572Z,101252.30
2018-05-11T22:41:23.104Z,101248.02
2018-05-11T22:43:50.605Z,101250.13
2018-05-11T22:46:18.301Z,101253.31
2018-05-11T22:48:46.004Z,101248.45
2018-05-11T22:51:13.492Z,101242.96
2018-05-11T22:53:41.001Z,101241.16
2018-05-11T22:56:08.657Z,101240.16
2018-05-11T22:58:36.123Z,101242.95
2018-05-11T23:01:03.910Z,101241.81
2018-05-11T23:03:31.594Z,101239.94
2018-05-11T23:05:59.099Z,101242.00
2018-05-11T23:08:26.580Z,101235.27
2018-05-11T23:10:54.348Z,101231.66
2018-05-11T23:13:21.940Z,101231.66
2018-05-11T23:15:49.573Z,101227.80
2018-05-11T23:18:17.189Z,101235.95
2018-05-11T23:20:44.683Z,101235.39
2018-05-11T23:23:12.680Z,101233.08
2018-05-11T23:25:40.196Z,101230.45
2018-05-11T23:28:07.979Z,101238.47
2018-05-11T23:30:35.464Z,101238.75
2018-05-11T23:33:02.972Z,101242.20
2018-05-11T23:35:30.466Z,101236.21
2018-05-11T23:37:57.939Z,101239.16
2018-05-11T23:40:25.408Z,101238.56
2018-05-11T23:42:53.006Z,101247.82
2018-05-11T23:45:20.511Z,101243.73
2018-05-11T23:47:47.963Z,101243.55
2018-05-11T23:50:15.495Z,101242.49
2018-05-11T23:52:43.890Z,101245.85
2018-05-11T23:55:11.403Z,101247.63
2018-05-11T23:57:38.907Z,101246.27
